Lake Tahoe, California
Current Conditions -  °F | °C
As of 2:53 AM on Thursday 23 Oct 2014 (Local Time) from KTVL Reporting Station
Clear Clear  
Wind Chill: 49°   Ceiling: Unl
Heat Index: 49°   Visibility: 10mi
Dew Point: 24°   Wind: 3mph
Humidity: 38%   Direction: NA
Pressure: 30.17"   Gusts: NA
Location:  38.9°N, 120°W
Report Text: KTVL 230953Z AUTO VRB03KT 10SM CLR 09/M04 A3017 RMK AO2 SLP166 T00941044
Loading
Personal Weather Stations






























Interactive Weather Map
Tropical Storm Tracking
New forecast layout! Learn more

10-Day Weather Forecast

Advertisements
Track Severe Weather on mobile